sensor_id;sensor_type;location;lat;lon;timestamp;P1;durP1;ratioP1;P2;durP2;ratioP2
27187;SDS011;14708;50.872;5.306;2023-08-17T00:01:41;2.50;;;2.30;;
27187;SDS011;14708;50.872;5.306;2023-08-17T00:04:07;2.60;;;2.40;;
27187;SDS011;14708;50.872;5.306;2023-08-17T00:06:32;2.67;;;2.47;;
27187;SDS011;14708;50.872;5.306;2023-08-17T00:08:58;2.80;;;2.22;;
27187;SDS011;14708;50.872;5.306;2023-08-17T00:11:24;3.25;;;2.22;;
27187;SDS011;14708;50.872;5.306;2023-08-17T00:13:50;2.28;;;2.08;;
27187;SDS011;14708;50.872;5.306;2023-08-17T00:16:16;2.35;;;2.08;;
27187;SDS011;14708;50.872;5.306;2023-08-17T00:18:42;2.20;;;2.00;;
27187;SDS011;14708;50.872;5.306;2023-08-17T00:21:07;2.70;;;2.50;;
27187;SDS011;14708;50.872;5.306;2023-08-17T00:23:33;2.50;;;2.20;;
27187;SDS011;14708;50.872;5.306;2023-08-17T00:25:59;2.75;;;2.00;;
27187;SDS011;14708;50.872;5.306;2023-08-17T00:28:25;2.35;;;2.13;;
27187;SDS011;14708;50.872;5.306;2023-08-17T00:30:51;2.60;;;2.33;;
27187;SDS011;14708;50.872;5.306;2023-08-17T00:33:17;2.40;;;2.13;;
27187;SDS011;14708;50.872;5.306;2023-08-17T00:35:43;3.33;;;1.95;;
27187;SDS011;14708;50.872;5.306;2023-08-17T00:38:10;2.85;;;2.25;;
27187;SDS011;14708;50.872;5.306;2023-08-17T00:40:36;2.50;;;2.30;;
27187;SDS011;14708;50.872;5.306;2023-08-17T00:43:02;2.53;;;2.25;;
27187;SDS011;14708;50.872;5.306;2023-08-17T00:45:28;2.78;;;2.40;;
27187;SDS011;14708;50.872;5.306;2023-08-17T00:47:55;2.47;;;2.22;;
27187;SDS011;14708;50.872;5.306;2023-08-17T00:50:22;2.97;;;2.30;;
27187;SDS011;14708;50.872;5.306;2023-08-17T00:52:48;4.10;;;2.13;;
27187;SDS011;14708;50.872;5.306;2023-08-17T00:55:15;2.67;;;2.10;;
27187;SDS011;14708;50.872;5.306;2023-08-17T00:57:41;2.03;;;1.92;;
27187;SDS011;14708;50.872;5.306;2023-08-17T01:00:07;2.33;;;2.13;;
27187;SDS011;14708;50.872;5.306;2023-08-17T01:02:38;2.50;;;2.28;;
27187;SDS011;14708;50.872;5.306;2023-08-17T01:07:33;3.05;;;2.55;;
27187;SDS011;14708;50.872;5.306;2023-08-17T01:09:59;2.63;;;2.17;;
27187;SDS011;14708;50.872;5.306;2023-08-17T01:15:14;3.13;;;2.28;;
27187;SDS011;14708;50.872;5.306;2023-08-17T01:17:47;4.57;;;2.30;;
27187;SDS011;14708;50.872;5.306;2023-08-17T01:20:19;3.05;;;2.38;;
27187;SDS011;14708;50.872;5.306;2023-08-17T01:22:46;2.38;;;2.17;;
27187;SDS011;14708;50.872;5.306;2023-08-17T01:27:41;2.22;;;2.03;;
27187;SDS011;14708;50.872;5.306;2023-08-17T01:30:10;3.72;;;2.28;;
27187;SDS011;14708;50.872;5.306;2023-08-17T01:35:20;2.40;;;2.20;;
27187;SDS011;14708;50.872;5.306;2023-08-17T01:38:09;1.90;;;1.80;;
27187;SDS011;14708;50.872;5.306;2023-08-17T01:40:44;2.67;;;2.45;;
27187;SDS011;14708;50.872;5.306;2023-08-17T01:43:12;2.70;;;2.35;;
27187;SDS011;14708;50.872;5.306;2023-08-17T01:45:38;2.75;;;2.35;;
27187;SDS011;14708;50.872;5.306;2023-08-17T01:48:04;2.17;;;1.98;;
27187;SDS011;14708;50.872;5.306;2023-08-17T01:50:30;2.28;;;2.05;;
27187;SDS011;14708;50.872;5.306;2023-08-17T01:52:55;2.97;;;2.28;;
27187;SDS011;14708;50.872;5.306;2023-08-17T01:55:21;2.40;;;2.20;;
27187;SDS011;14708;50.872;5.306;2023-08-17T01:57:48;2.40;;;2.20;;
27187;SDS011;14708;50.872;5.306;2023-08-17T02:00:14;2.03;;;1.92;;
27187;SDS011;14708;50.872;5.306;2023-08-17T02:02:40;2.58;;;2.05;;
27187;SDS011;14708;50.872;5.306;2023-08-17T02:05:06;2.42;;;2.22;;
27187;SDS011;14708;50.872;5.306;2023-08-17T02:07:32;2.85;;;2.30;;
27187;SDS011;14708;50.872;5.306;2023-08-17T02:09:58;2.75;;;2.22;;
27187;SDS011;14708;50.872;5.306;2023-08-17T02:12:24;2.58;;;2.38;;
27187;SDS011;14708;50.872;5.306;2023-08-17T02:14:49;2.50;;;2.30;;
27187;SDS011;14708;50.872;5.306;2023-08-17T02:17:15;2.08;;;1.98;;
27187;SDS011;14708;50.872;5.306;2023-08-17T02:19:44;2.38;;;2.17;;
27187;SDS011;14708;50.872;5.306;2023-08-17T02:22:12;2.33;;;2.13;;
27187;SDS011;14708;50.872;5.306;2023-08-17T02:24:38;2.08;;;1.88;;
27187;SDS011;14708;50.872;5.306;2023-08-17T02:27:03;5.32;;;2.50;;
27187;SDS011;14708;50.872;5.306;2023-08-17T02:29:29;2.65;;;2.17;;
27187;SDS011;14708;50.872;5.306;2023-08-17T02:31:55;2.55;;;2.20;;
27187;SDS011;14708;50.872;5.306;2023-08-17T02:34:21;2.58;;;2.25;;
27187;SDS011;14708;50.872;5.306;2023-08-17T02:36:46;2.22;;;2.00;;
27187;SDS011;14708;50.872;5.306;2023-08-17T02:39:12;2.58;;;2.13;;
27187;SDS011;14708;50.872;5.306;2023-08-17T02:41:38;2.17;;;1.98;;
27187;SDS011;14708;50.872;5.306;2023-08-17T02:44:04;2.17;;;1.98;;
27187;SDS011;14708;50.872;5.306;2023-08-17T02:46:30;2.60;;;2.40;;
27187;SDS011;14708;50.872;5.306;2023-08-17T02:48:55;2.45;;;2.25;;
27187;SDS011;14708;50.872;5.306;2023-08-17T02:51:21;1.90;;;1.80;;
27187;SDS011;14708;50.872;5.306;2023-08-17T02:53:47;2.15;;;1.92;;
27187;SDS011;14708;50.872;5.306;2023-08-17T02:56:12;2.53;;;2.33;;
27187;SDS011;14708;50.872;5.306;2023-08-17T02:58:38;2.08;;;1.88;;
27187;SDS011;14708;50.872;5.306;2023-08-17T03:01:07;1.90;;;1.80;;
27187;SDS011;14708;50.872;5.306;2023-08-17T03:03:33;2.78;;;1.90;;
27187;SDS011;14708;50.872;5.306;2023-08-17T03:05:59;2.20;;;2.00;;
27187;SDS011;14708;50.872;5.306;2023-08-17T03:08:25;2.15;;;1.95;;
27187;SDS011;14708;50.872;5.306;2023-08-17T03:10:50;2.13;;;2.00;;
27187;SDS011;14708;50.872;5.306;2023-08-17T03:13:16;2.15;;;1.95;;
27187;SDS011;14708;50.872;5.306;2023-08-17T03:15:42;2.35;;;2.15;;
27187;SDS011;14708;50.872;5.306;2023-08-17T03:18:07;2.30;;;2.10;;
27187;SDS011;14708;50.872;5.306;2023-08-17T03:20:33;2.40;;;2.20;;
27187;SDS011;14708;50.872;5.306;2023-08-17T03:22:59;2.53;;;2.10;;
27187;SDS011;14708;50.872;5.306;2023-08-17T03:25:24;2.30;;;1.90;;
27187;SDS011;14708;50.872;5.306;2023-08-17T03:27:50;1.90;;;1.80;;
27187;SDS011;14708;50.872;5.306;2023-08-17T03:30:15;1.88;;;1.77;;
27187;SDS011;14708;50.872;5.306;2023-08-17T03:32:41;2.58;;;2.38;;
27187;SDS011;14708;50.872;5.306;2023-08-17T03:35:07;1.90;;;1.80;;
27187;SDS011;14708;50.872;5.306;2023-08-17T03:37:33;2.10;;;2.00;;
27187;SDS011;14708;50.872;5.306;2023-08-17T03:39:59;1.90;;;1.75;;
27187;SDS011;14708;50.872;5.306;2023-08-17T03:42:26;2.30;;;2.10;;
27187;SDS011;14708;50.872;5.306;2023-08-17T03:44:52;2.00;;;1.90;;
27187;SDS011;14708;50.872;5.306;2023-08-17T03:47:18;2.33;;;2.13;;
27187;SDS011;14708;50.872;5.306;2023-08-17T03:49:44;2.25;;;2.05;;
27187;SDS011;14708;50.872;5.306;2023-08-17T03:52:10;2.45;;;2.10;;
27187;SDS011;14708;50.872;5.306;2023-08-17T03:54:35;2.10;;;1.90;;
27187;SDS011;14708;50.872;5.306;2023-08-17T03:57:01;2.03;;;1.85;;
27187;SDS011;14708;50.872;5.306;2023-08-17T03:59:27;2.33;;;2.13;;
27187;SDS011;14708;50.872;5.306;2023-08-17T04:01:53;2.58;;;2.38;;
27187;SDS011;14708;50.872;5.306;2023-08-17T04:04:19;2.17;;;1.98;;
27187;SDS011;14708;50.872;5.306;2023-08-17T04:06:45;2.30;;;2.10;;
27187;SDS011;14708;50.872;5.306;2023-08-17T04:09:10;2.35;;;2.15;;
27187;SDS011;14708;50.872;5.306;2023-08-17T04:11:36;3.20;;;2.90;;
27187;SDS011;14708;50.872;5.306;2023-08-17T04:14:02;1.85;;;1.75;;
27187;SDS011;14708;50.872;5.306;2023-08-17T04:16:28;2.20;;;1.73;;
27187;SDS011;14708;50.872;5.306;2023-08-17T04:18:54;2.55;;;2.35;;
27187;SDS011;14708;50.872;5.306;2023-08-17T04:21:20;2.40;;;2.20;;
27187;SDS011;14708;50.872;5.306;2023-08-17T04:23:46;3.13;;;2.53;;
27187;SDS011;14708;50.872;5.306;2023-08-17T04:26:11;1.95;;;1.70;;
27187;SDS011;14708;50.872;5.306;2023-08-17T04:28:37;1.92;;;1.83;;
27187;SDS011;14708;50.872;5.306;2023-08-17T04:31:03;2.28;;;2.08;;
27187;SDS011;14708;50.872;5.306;2023-08-17T04:33:29;2.90;;;2.40;;
27187;SDS011;14708;50.872;5.306;2023-08-17T04:35:54;2.40;;;2.20;;
27187;SDS011;14708;50.872;5.306;2023-08-17T04:38:20;2.40;;;2.15;;
27187;SDS011;14708;50.872;5.306;2023-08-17T04:40:46;2.45;;;2.25;;
27187;SDS011;14708;50.872;5.306;2023-08-17T04:43:12;2.30;;;1.75;;
27187;SDS011;14708;50.872;5.306;2023-08-17T04:45:38;2.65;;;2.45;;
27187;SDS011;14708;50.872;5.306;2023-08-17T04:48:04;1.98;;;1.88;;
27187;SDS011;14708;50.872;5.306;2023-08-17T04:50:31;2.60;;;2.08;;
27187;SDS011;14708;50.872;5.306;2023-08-17T04:52:57;1.88;;;1.77;;
27187;SDS011;14708;50.872;5.306;2023-08-17T04:55:23;2.60;;;2.40;;
27187;SDS011;14708;50.872;5.306;2023-08-17T04:57:48;2.20;;;2.00;;
27187;SDS011;14708;50.872;5.306;2023-08-17T05:00:14;2.10;;;1.90;;
27187;SDS011;14708;50.872;5.306;2023-08-17T05:02:41;2.28;;;2.08;;
27187;SDS011;14708;50.872;5.306;2023-08-17T05:05:07;2.20;;;1.92;;
27187;SDS011;14708;50.872;5.306;2023-08-17T05:07:34;2.40;;;2.20;;
27187;SDS011;14708;50.872;5.306;2023-08-17T05:10:00;2.50;;;2.30;;
27187;SDS011;14708;50.872;5.306;2023-08-17T05:12:26;2.28;;;2.08;;
27187;SDS011;14708;50.872;5.306;2023-08-17T05:14:52;2.50;;;2.30;;
27187;SDS011;14708;50.872;5.306;2023-08-17T05:17:17;2.13;;;2.00;;
27187;SDS011;14708;50.872;5.306;2023-08-17T05:19:43;2.40;;;2.20;;
27187;SDS011;14708;50.872;5.306;2023-08-17T05:22:09;2.30;;;2.17;;
27187;SDS011;14708;50.872;5.306;2023-08-17T05:24:36;2.15;;;1.95;;
27187;SDS011;14708;50.872;5.306;2023-08-17T05:27:01;2.05;;;1.85;;
27187;SDS011;14708;50.872;5.306;2023-08-17T05:29:27;2.88;;;2.10;;
27187;SDS011;14708;50.872;5.306;2023-08-17T05:31:53;2.60;;;2.20;;
27187;SDS011;14708;50.872;5.306;2023-08-17T05:34:19;2.25;;;2.05;;
27187;SDS011;14708;50.872;5.306;2023-08-17T05:36:44;2.45;;;2.25;;
27187;SDS011;14708;50.872;5.306;2023-08-17T05:39:10;2.30;;;2.10;;
27187;SDS011;14708;50.872;5.306;2023-08-17T05:41:36;13.77;;;4.07;;
27187;SDS011;14708;50.872;5.306;2023-08-17T05:44:01;85.20;;;18.10;;
27187;SDS011;14708;50.872;5.306;2023-08-17T05:46:27;59.53;;;15.15;;
27187;SDS011;14708;50.872;5.306;2023-08-17T05:48:53;42.05;;;11.48;;
27187;SDS011;14708;50.872;5.306;2023-08-17T05:51:18;31.08;;;9.02;;
27187;SDS011;14708;50.872;5.306;2023-08-17T05:53:44;22.92;;;7.05;;
27187;SDS011;14708;50.872;5.306;2023-08-17T05:56:10;21.95;;;5.50;;
27187;SDS011;14708;50.872;5.306;2023-08-17T05:58:36;15.02;;;4.60;;
27187;SDS011;14708;50.872;5.306;2023-08-17T06:01:05;12.95;;;3.70;;
27187;SDS011;14708;50.872;5.306;2023-08-17T06:03:32;10.45;;;3.95;;
27187;SDS011;14708;50.872;5.306;2023-08-17T06:05:58;9.95;;;3.60;;
27187;SDS011;14708;50.872;5.306;2023-08-17T06:08:24;10.73;;;3.60;;
27187;SDS011;14708;50.872;5.306;2023-08-17T06:10:50;6.68;;;3.40;;
27187;SDS011;14708;50.872;5.306;2023-08-17T06:13:15;12.85;;;3.42;;
27187;SDS011;14708;50.872;5.306;2023-08-17T06:15:41;5.15;;;2.50;;
27187;SDS011;14708;50.872;5.306;2023-08-17T06:18:07;6.80;;;2.53;;
27187;SDS011;14708;50.872;5.306;2023-08-17T06:20:32;8.73;;;2.95;;
27187;SDS011;14708;50.872;5.306;2023-08-17T06:22:58;5.72;;;2.45;;
27187;SDS011;14708;50.872;5.306;2023-08-17T06:25:23;5.32;;;2.88;;
27187;SDS011;14708;50.872;5.306;2023-08-17T06:27:50;6.70;;;2.45;;
27187;SDS011;14708;50.872;5.306;2023-08-17T06:30:17;5.75;;;2.33;;
27187;SDS011;14708;50.872;5.306;2023-08-17T06:32:42;6.60;;;2.50;;
27187;SDS011;14708;50.872;5.306;2023-08-17T06:35:08;6.28;;;2.58;;
27187;SDS011;14708;50.872;5.306;2023-08-17T06:37:34;6.03;;;2.17;;
27187;SDS011;14708;50.872;5.306;2023-08-17T06:40:00;6.35;;;2.55;;
27187;SDS011;14708;50.872;5.306;2023-08-17T06:42:27;6.63;;;2.67;;
27187;SDS011;14708;50.872;5.306;2023-08-17T06:44:53;11.73;;;2.67;;
27187;SDS011;14708;50.872;5.306;2023-08-17T06:47:19;8.57;;;2.95;;
27187;SDS011;14708;50.872;5.306;2023-08-17T06:49:44;6.93;;;2.75;;
27187;SDS011;14708;50.872;5.306;2023-08-17T06:52:10;6.30;;;3.03;;
27187;SDS011;14708;50.872;5.306;2023-08-17T06:54:35;5.50;;;3.40;;
27187;SDS011;14708;50.872;5.306;2023-08-17T06:57:01;7.55;;;3.35;;
27187;SDS011;14708;50.872;5.306;2023-08-17T06:59:27;6.97;;;3.13;;
27187;SDS011;14708;50.872;5.306;2023-08-17T07:01:53;8.52;;;3.40;;
27187;SDS011;14708;50.872;5.306;2023-08-17T07:04:18;8.00;;;3.80;;
27187;SDS011;14708;50.872;5.306;2023-08-17T07:06:44;10.07;;;3.78;;
27187;SDS011;14708;50.872;5.306;2023-08-17T07:09:09;10.95;;;3.72;;
27187;SDS011;14708;50.872;5.306;2023-08-17T07:11:37;10.57;;;4.40;;
27187;SDS011;14708;50.872;5.306;2023-08-17T07:14:03;8.60;;;4.40;;
27187;SDS011;14708;50.872;5.306;2023-08-17T07:16:31;9.50;;;4.40;;
27187;SDS011;14708;50.872;5.306;2023-08-17T07:18:57;10.75;;;4.85;;
27187;SDS011;14708;50.872;5.306;2023-08-17T07:21:22;13.93;;;4.95;;
27187;SDS011;14708;50.872;5.306;2023-08-17T07:23:48;10.20;;;5.50;;
27187;SDS011;14708;50.872;5.306;2023-08-17T07:26:15;13.27;;;6.05;;
27187;SDS011;14708;50.872;5.306;2023-08-17T07:28:43;15.07;;;6.65;;
27187;SDS011;14708;50.872;5.306;2023-08-17T07:31:09;10.95;;;6.70;;
27187;SDS011;14708;50.872;5.306;2023-08-17T07:33:35;11.73;;;6.53;;
27187;SDS011;14708;50.872;5.306;2023-08-17T07:36:00;13.85;;;6.97;;
27187;SDS011;14708;50.872;5.306;2023-08-17T07:38:26;14.90;;;7.20;;
27187;SDS011;14708;50.872;5.306;2023-08-17T07:40:52;15.73;;;7.40;;
27187;SDS011;14708;50.872;5.306;2023-08-17T07:43:17;12.68;;;7.20;;
27187;SDS011;14708;50.872;5.306;2023-08-17T07:45:43;17.23;;;6.95;;
27187;SDS011;14708;50.872;5.306;2023-08-17T07:48:09;20.17;;;8.00;;
27187;SDS011;14708;50.872;5.306;2023-08-17T07:50:34;13.20;;;6.85;;
27187;SDS011;14708;50.872;5.306;2023-08-17T07:53:00;13.10;;;7.97;;
27187;SDS011;14708;50.872;5.306;2023-08-17T07:55:26;14.88;;;7.63;;
27187;SDS011;14708;50.872;5.306;2023-08-17T07:57:52;19.95;;;8.50;;
27187;SDS011;14708;50.872;5.306;2023-08-17T08:00:17;19.27;;;8.98;;
27187;SDS011;14708;50.872;5.306;2023-08-17T08:02:43;14.00;;;8.80;;
27187;SDS011;14708;50.872;5.306;2023-08-17T08:05:09;18.83;;;8.98;;
27187;SDS011;14708;50.872;5.306;2023-08-17T08:07:34;14.15;;;8.35;;
27187;SDS011;14708;50.872;5.306;2023-08-17T08:10:00;17.10;;;9.18;;
27187;SDS011;14708;50.872;5.306;2023-08-17T08:12:26;20.08;;;9.77;;
27187;SDS011;14708;50.872;5.306;2023-08-17T08:14:51;21.35;;;9.10;;
27187;SDS011;14708;50.872;5.306;2023-08-17T08:17:17;19.13;;;9.35;;
27187;SDS011;14708;50.872;5.306;2023-08-17T08:19:44;17.33;;;9.38;;
27187;SDS011;14708;50.872;5.306;2023-08-17T08:22:10;17.38;;;9.82;;
27187;SDS011;14708;50.872;5.306;2023-08-17T08:24:36;17.65;;;8.95;;
27187;SDS011;14708;50.872;5.306;2023-08-17T08:27:01;16.10;;;8.52;;
27187;SDS011;14708;50.872;5.306;2023-08-17T08:29:27;15.70;;;9.40;;
27187;SDS011;14708;50.872;5.306;2023-08-17T08:31:53;15.50;;;9.20;;
27187;SDS011;14708;50.872;5.306;2023-08-17T08:34:19;16.55;;;8.75;;
27187;SDS011;14708;50.872;5.306;2023-08-17T08:36:47;13.73;;;8.48;;
27187;SDS011;14708;50.872;5.306;2023-08-17T08:39:13;17.67;;;9.57;;
27187;SDS011;14708;50.872;5.306;2023-08-17T08:41:39;14.45;;;9.57;;
27187;SDS011;14708;50.872;5.306;2023-08-17T08:44:05;17.67;;;10.00;;
27187;SDS011;14708;50.872;5.306;2023-08-17T08:46:30;15.68;;;9.85;;
27187;SDS011;14708;50.872;5.306;2023-08-17T08:48:59;15.87;;;10.37;;
27187;SDS011;14708;50.872;5.306;2023-08-17T08:51:28;23.08;;;10.82;;
27187;SDS011;14708;50.872;5.306;2023-08-17T08:54:01;18.55;;;10.52;;
27187;SDS011;14708;50.872;5.306;2023-08-17T08:56:33;15.55;;;9.40;;
27187;SDS011;14708;50.872;5.306;2023-08-17T08:59:02;17.63;;;10.27;;
27187;SDS011;14708;50.872;5.306;2023-08-17T09:01:32;19.17;;;11.73;;
27187;SDS011;14708;50.872;5.306;2023-08-17T09:06:29;19.33;;;12.13;;
27187;SDS011;14708;50.872;5.306;2023-08-17T09:08:58;18.90;;;10.95;;
27187;SDS011;14708;50.872;5.306;2023-08-17T09:11:26;20.20;;;11.18;;
27187;SDS011;14708;50.872;5.306;2023-08-17T09:13:52;17.67;;;10.57;;
27187;SDS011;14708;50.872;5.306;2023-08-17T09:16:19;20.38;;;10.80;;
27187;SDS011;14708;50.872;5.306;2023-08-17T09:18:44;18.00;;;10.27;;
27187;SDS011;14708;50.872;5.306;2023-08-17T09:21:19;18.13;;;10.90;;
27187;SDS011;14708;50.872;5.306;2023-08-17T09:23:50;16.73;;;9.65;;
27187;SDS011;14708;50.872;5.306;2023-08-17T09:26:17;17.52;;;9.35;;
27187;SDS011;14708;50.872;5.306;2023-08-17T09:28:44;15.20;;;8.90;;
27187;SDS011;14708;50.872;5.306;2023-08-17T09:31:10;19.10;;;9.00;;
27187;SDS011;14708;50.872;5.306;2023-08-17T09:33:36;16.95;;;9.45;;
27187;SDS011;14708;50.872;5.306;2023-08-17T09:36:02;14.80;;;9.25;;
27187;SDS011;14708;50.872;5.306;2023-08-17T09:38:28;19.42;;;9.02;;
27187;SDS011;14708;50.872;5.306;2023-08-17T09:40:54;16.83;;;9.93;;
27187;SDS011;14708;50.872;5.306;2023-08-17T09:43:20;20.40;;;8.77;;
27187;SDS011;14708;50.872;5.306;2023-08-17T09:45:46;15.95;;;9.65;;
27187;SDS011;14708;50.872;5.306;2023-08-17T09:48:18;15.52;;;9.25;;
27187;SDS011;14708;50.872;5.306;2023-08-17T09:50:45;18.83;;;9.40;;
27187;SDS011;14708;50.872;5.306;2023-08-17T09:53:13;14.73;;;10.40;;
27187;SDS011;14708;50.872;5.306;2023-08-17T09:55:43;16.08;;;9.75;;
27187;SDS011;14708;50.872;5.306;2023-08-17T09:58:09;17.95;;;9.90;;
27187;SDS011;14708;50.872;5.306;2023-08-17T10:00:40;16.17;;;10.00;;
27187;SDS011;14708;50.872;5.306;2023-08-17T10:03:10;28.40;;;21.20;;
27187;SDS011;14708;50.872;5.306;2023-08-17T10:05:39;30.35;;;20.42;;
27187;SDS011;14708;50.872;5.306;2023-08-17T10:08:06;22.65;;;15.48;;
27187;SDS011;14708;50.872;5.306;2023-08-17T10:10:34;18.55;;;14.07;;
27187;SDS011;14708;50.872;5.306;2023-08-17T10:13:10;15.57;;;10.95;;
27187;SDS011;14708;50.872;5.306;2023-08-17T10:15:37;16.00;;;11.23;;
27187;SDS011;14708;50.872;5.306;2023-08-17T10:21:02;12.35;;;9.77;;
27187;SDS011;14708;50.872;5.306;2023-08-17T10:23:31;12.93;;;9.98;;
27187;SDS011;14708;50.872;5.306;2023-08-17T10:25:57;14.55;;;9.32;;
27187;SDS011;14708;50.872;5.306;2023-08-17T10:28:24;13.40;;;9.45;;
27187;SDS011;14708;50.872;5.306;2023-08-17T10:30:50;11.35;;;9.10;;
27187;SDS011;14708;50.872;5.306;2023-08-17T10:33:17;13.00;;;9.98;;
27187;SDS011;14708;50.872;5.306;2023-08-17T10:35:43;11.43;;;8.63;;
27187;SDS011;14708;50.872;5.306;2023-08-17T10:38:10;12.80;;;9.23;;
27187;SDS011;14708;50.872;5.306;2023-08-17T10:40:38;13.27;;;9.85;;
27187;SDS011;14708;50.872;5.306;2023-08-17T10:43:05;18.30;;;10.40;;
27187;SDS011;14708;50.872;5.306;2023-08-17T10:45:32;15.45;;;10.20;;
27187;SDS011;14708;50.872;5.306;2023-08-17T10:50:37;13.00;;;9.57;;
27187;SDS011;14708;50.872;5.306;2023-08-17T10:53:05;10.63;;;9.45;;
27187;SDS011;14708;50.872;5.306;2023-08-17T10:55:41;14.27;;;9.02;;
27187;SDS011;14708;50.872;5.306;2023-08-17T10:58:09;13.43;;;9.45;;
27187;SDS011;14708;50.872;5.306;2023-08-17T11:00:38;20.17;;;10.02;;
27187;SDS011;14708;50.872;5.306;2023-08-17T11:03:05;14.20;;;10.13;;
27187;SDS011;14708;50.872;5.306;2023-08-17T11:08:22;11.68;;;9.05;;
27187;SDS011;14708;50.872;5.306;2023-08-17T11:10:56;12.38;;;9.52;;
27187;SDS011;14708;50.872;5.306;2023-08-17T11:13:36;15.13;;;9.63;;
27187;SDS011;14708;50.872;5.306;2023-08-17T11:16:03;14.80;;;10.05;;
27187;SDS011;14708;50.872;5.306;2023-08-17T11:18:30;19.33;;;11.02;;
27187;SDS011;14708;50.872;5.306;2023-08-17T11:20:56;17.10;;;10.82;;
27187;SDS011;14708;50.872;5.306;2023-08-17T11:23:22;12.80;;;9.90;;
27187;SDS011;14708;50.872;5.306;2023-08-17T11:25:48;21.88;;;10.32;;
27187;SDS011;14708;50.872;5.306;2023-08-17T11:28:16;14.25;;;10.13;;
27187;SDS011;14708;50.872;5.306;2023-08-17T11:30:42;18.42;;;11.70;;
27187;SDS011;14708;50.872;5.306;2023-08-17T11:33:09;16.55;;;10.90;;
27187;SDS011;14708;50.872;5.306;2023-08-17T11:35:35;14.48;;;11.82;;
27187;SDS011;14708;50.872;5.306;2023-08-17T11:38:02;18.10;;;11.48;;
27187;SDS011;14708;50.872;5.306;2023-08-17T11:40:28;19.67;;;12.07;;
27187;SDS011;14708;50.872;5.306;2023-08-17T11:42:55;19.02;;;12.15;;
27187;SDS011;14708;50.872;5.306;2023-08-17T11:45:21;15.70;;;12.90;;
27187;SDS011;14708;50.872;5.306;2023-08-17T11:47:47;16.02;;;12.45;;
27187;SDS011;14708;50.872;5.306;2023-08-17T11:50:14;14.32;;;11.88;;
27187;SDS011;14708;50.872;5.306;2023-08-17T11:52:40;13.80;;;11.95;;
27187;SDS011;14708;50.872;5.306;2023-08-17T11:55:06;15.43;;;12.32;;
27187;SDS011;14708;50.872;5.306;2023-08-17T11:57:34;20.63;;;11.97;;
27187;SDS011;14708;50.872;5.306;2023-08-17T12:00:01;14.93;;;11.25;;
27187;SDS011;14708;50.872;5.306;2023-08-17T12:02:29;16.80;;;12.75;;
27187;SDS011;14708;50.872;5.306;2023-08-17T12:04:55;14.35;;;11.95;;
27187;SDS011;14708;50.872;5.306;2023-08-17T12:07:23;17.25;;;11.77;;
27187;SDS011;14708;50.872;5.306;2023-08-17T12:09:52;19.25;;;11.10;;
27187;SDS011;14708;50.872;5.306;2023-08-17T12:12:24;16.58;;;11.02;;
27187;SDS011;14708;50.872;5.306;2023-08-17T12:15:06;17.33;;;12.68;;
27187;SDS011;14708;50.872;5.306;2023-08-17T12:18:05;13.77;;;11.73;;
27187;SDS011;14708;50.872;5.306;2023-08-17T12:20:32;15.27;;;11.52;;
27187;SDS011;14708;50.872;5.306;2023-08-17T12:23:01;16.23;;;11.60;;
27187;SDS011;14708;50.872;5.306;2023-08-17T12:25:31;19.33;;;12.18;;
27187;SDS011;14708;50.872;5.306;2023-08-17T12:27:58;16.95;;;12.02;;
27187;SDS011;14708;50.872;5.306;2023-08-17T12:30:29;14.60;;;11.45;;
27187;SDS011;14708;50.872;5.306;2023-08-17T12:33:01;16.50;;;12.55;;
27187;SDS011;14708;50.872;5.306;2023-08-17T12:35:27;18.83;;;12.73;;
27187;SDS011;14708;50.872;5.306;2023-08-17T12:38:11;22.10;;;12.73;;
27187;SDS011;14708;50.872;5.306;2023-08-17T12:40:37;15.93;;;11.52;;
27187;SDS011;14708;50.872;5.306;2023-08-17T12:43:03;18.20;;;11.75;;
27187;SDS011;14708;50.872;5.306;2023-08-17T12:45:30;14.77;;;10.52;;
27187;SDS011;14708;50.872;5.306;2023-08-17T12:48:01;14.68;;;10.93;;
27187;SDS011;14708;50.872;5.306;2023-08-17T12:50:50;13.90;;;11.63;;
27187;SDS011;14708;50.872;5.306;2023-08-17T12:53:59;12.52;;;10.13;;
27187;SDS011;14708;50.872;5.306;2023-08-17T12:56:27;14.95;;;10.82;;
27187;SDS011;14708;50.872;5.306;2023-08-17T12:58:55;18.35;;;12.18;;
27187;SDS011;14708;50.872;5.306;2023-08-17T13:02:02;15.80;;;11.18;;
27187;SDS011;14708;50.872;5.306;2023-08-17T13:04:28;15.77;;;11.50;;
27187;SDS011;14708;50.872;5.306;2023-08-17T13:06:55;17.27;;;11.52;;
27187;SDS011;14708;50.872;5.306;2023-08-17T13:09:30;15.05;;;11.52;;
27187;SDS011;14708;50.872;5.306;2023-08-17T13:11:55;16.45;;;10.88;;
27187;SDS011;14708;50.872;5.306;2023-08-17T13:14:21;16.10;;;11.73;;
27187;SDS011;14708;50.872;5.306;2023-08-17T13:16:48;20.23;;;12.43;;
27187;SDS011;14708;50.872;5.306;2023-08-17T13:19:14;15.00;;;11.68;;
27187;SDS011;14708;50.872;5.306;2023-08-17T13:21:40;19.33;;;13.05;;
27187;SDS011;14708;50.872;5.306;2023-08-17T13:24:06;21.20;;;12.32;;
27187;SDS011;14708;50.872;5.306;2023-08-17T13:26:32;17.35;;;12.40;;
27187;SDS011;14708;50.872;5.306;2023-08-17T13:28:57;15.77;;;12.40;;
27187;SDS011;14708;50.872;5.306;2023-08-17T13:31:23;18.83;;;14.27;;
27187;SDS011;14708;50.872;5.306;2023-08-17T13:33:49;18.27;;;11.88;;
27187;SDS011;14708;50.872;5.306;2023-08-17T13:36:14;20.23;;;12.50;;
27187;SDS011;14708;50.872;5.306;2023-08-17T13:38:40;14.50;;;11.95;;
27187;SDS011;14708;50.872;5.306;2023-08-17T13:41:06;22.45;;;13.35;;
27187;SDS011;14708;50.872;5.306;2023-08-17T13:43:31;20.85;;;12.73;;
27187;SDS011;14708;50.872;5.306;2023-08-17T13:45:57;17.15;;;12.80;;
27187;SDS011;14708;50.872;5.306;2023-08-17T13:48:23;20.35;;;13.52;;
27187;SDS011;14708;50.872;5.306;2023-08-17T13:50:48;20.75;;;12.38;;
27187;SDS011;14708;50.872;5.306;2023-08-17T13:53:15;17.25;;;12.38;;
27187;SDS011;14708;50.872;5.306;2023-08-17T13:55:40;19.45;;;13.32;;
27187;SDS011;14708;50.872;5.306;2023-08-17T13:58:06;19.88;;;12.52;;
27187;SDS011;14708;50.872;5.306;2023-08-17T14:00:35;17.88;;;13.82;;
27187;SDS011;14708;50.872;5.306;2023-08-17T14:03:01;19.13;;;13.18;;
27187;SDS011;14708;50.872;5.306;2023-08-17T14:05:27;17.15;;;13.02;;
27187;SDS011;14708;50.872;5.306;2023-08-17T14:07:52;17.38;;;12.25;;
27187;SDS011;14708;50.872;5.306;2023-08-17T14:10:18;16.63;;;12.85;;
27187;SDS011;14708;50.872;5.306;2023-08-17T14:12:44;17.55;;;12.63;;
27187;SDS011;14708;50.872;5.306;2023-08-17T14:15:09;19.75;;;12.68;;
27187;SDS011;14708;50.872;5.306;2023-08-17T14:17:37;15.40;;;12.10;;
27187;SDS011;14708;50.872;5.306;2023-08-17T14:20:06;18.88;;;13.63;;
27187;SDS011;14708;50.872;5.306;2023-08-17T14:22:33;18.77;;;12.45;;
27187;SDS011;14708;50.872;5.306;2023-08-17T14:24:59;18.20;;;13.13;;
27187;SDS011;14708;50.872;5.306;2023-08-17T14:27:24;19.02;;;14.23;;
27187;SDS011;14708;50.872;5.306;2023-08-17T14:29:50;23.75;;;14.27;;
27187;SDS011;14708;50.872;5.306;2023-08-17T14:32:16;25.17;;;14.93;;
27187;SDS011;14708;50.872;5.306;2023-08-17T14:34:41;25.65;;;17.30;;
27187;SDS011;14708;50.872;5.306;2023-08-17T14:37:07;24.95;;;14.93;;
27187;SDS011;14708;50.872;5.306;2023-08-17T14:39:32;31.15;;;16.08;;
27187;SDS011;14708;50.872;5.306;2023-08-17T14:41:58;32.35;;;16.48;;
27187;SDS011;14708;50.872;5.306;2023-08-17T14:44:24;26.80;;;15.70;;
27187;SDS011;14708;50.872;5.306;2023-08-17T14:46:49;21.80;;;14.52;;
27187;SDS011;14708;50.872;5.306;2023-08-17T14:49:15;17.35;;;13.82;;
27187;SDS011;14708;50.872;5.306;2023-08-17T14:51:40;21.38;;;13.75;;
27187;SDS011;14708;50.872;5.306;2023-08-17T14:54:07;23.92;;;13.68;;
27187;SDS011;14708;50.872;5.306;2023-08-17T14:56:33;18.20;;;12.95;;